createdAt,value
2022-12-07T00:01:24.552Z,102048.44
2022-12-07T00:03:54.183Z,102044.78
2022-12-07T00:06:21.614Z,102033.59
2022-12-07T00:08:49.025Z,102051.91
2022-12-07T00:11:19.067Z,102041.44
2022-12-07T00:13:47.255Z,102044.22
2022-12-07T00:16:15.988Z,102049.28
2022-12-07T00:18:43.524Z,102032.81
2022-12-07T00:21:11.797Z,102026.63
2022-12-07T00:23:39.304Z,102044.78
2022-12-07T00:26:17.624Z,102044.78
2022-12-07T00:28:53.097Z,102031.06
2022-12-07T00:31:21.392Z,102005.00
2022-12-07T00:33:48.182Z,101982.97
2022-12-07T00:36:23.087Z,101985.88
2022-12-07T00:38:53.305Z,102020.63
2022-12-07T00:41:22.029Z,102019.91
2022-12-07T00:43:50.181Z,101970.31
2022-12-07T00:46:17.662Z,101981.53
2022-12-07T00:48:44.359Z,102018.75
2022-12-07T00:51:13.916Z,102023.25
2022-12-07T00:53:42.099Z,102025.84
2022-12-07T00:56:30.044Z,101980.63
2022-12-07T00:59:01.946Z,102017.94
2022-12-07T01:01:32.044Z,102015.47
2022-12-07T01:03:58.853Z,101978.25
2022-12-07T01:06:26.439Z,102004.41
2022-12-07T01:08:53.670Z,101978.28
2022-12-07T01:11:23.551Z,102010.91
2022-12-07T01:13:54.537Z,102006.78
2022-12-07T01:16:22.338Z,102013.69
2022-12-07T01:18:51.468Z,102002.56
2022-12-07T01:21:21.957Z,101989.72
2022-12-07T01:23:48.749Z,101985.50
2022-12-07T01:26:19.839Z,101980.34
2022-12-07T01:28:47.040Z,101962.09
2022-12-07T01:31:16.523Z,101974.91
2022-12-07T01:33:45.641Z,101969.84
2022-12-07T01:36:18.470Z,101971.44
2022-12-07T01:38:46.283Z,101962.91
2022-12-07T01:41:13.657Z,101953.44
2022-12-07T01:44:17.893Z,101973.41
2022-12-07T01:47:06.056Z,101974.06
2022-12-07T01:49:45.335Z,101957.84
2022-12-07T01:52:21.601Z,101947.47
2022-12-07T01:54:50.022Z,101966.53
2022-12-07T01:57:18.541Z,101969.88
2022-12-07T01:59:48.335Z,101959.50
2022-12-07T02:02:21.551Z,101950.16
2022-12-07T02:04:48.242Z,101945.00
2022-12-07T02:07:16.140Z,101957.00
2022-12-07T02:09:42.859Z,101938.06
2022-12-07T02:12:09.833Z,101937.09
2022-12-07T02:14:36.999Z,101945.63
2022-12-07T02:17:22.247Z,101945.88
2022-12-07T02:20:22.430Z,101949.28
2022-12-07T02:23:17.386Z,101943.31
2022-12-07T02:25:50.147Z,101944.19
2022-12-07T02:28:28.867Z,101940.88
2022-12-07T02:31:00.461Z,101924.41
2022-12-07T02:33:37.006Z,101920.97
2022-12-07T02:36:12.481Z,101898.38
2022-12-07T02:38:51.425Z,101928.75
2022-12-07T02:41:26.087Z,101925.25
2022-12-07T02:43:56.902Z,101907.81
2022-12-07T02:46:28.928Z,101907.81
2022-12-07T02:48:56.627Z,101908.84
2022-12-07T02:51:23.818Z,101920.22
2022-12-07T02:53:50.725Z,101889.72
2022-12-07T02:56:31.954Z,101922.53
2022-12-07T02:59:13.590Z,101923.66
2022-12-07T03:01:56.341Z,101904.66
2022-12-07T03:04:43.852Z,101905.41
2022-12-07T03:07:34.804Z,101914.16
2022-12-07T03:10:10.632Z,101911.44
2022-12-07T03:12:48.624Z,101901.16
2022-12-07T03:15:21.355Z,101873.44
2022-12-07T03:17:52.013Z,101912.41
2022-12-07T03:20:23.236Z,101889.03
2022-12-07T03:22:52.333Z,101859.56
2022-12-07T03:25:19.573Z,101927.16
2022-12-07T03:27:54.233Z,101922.81
2022-12-07T03:30:32.110Z,101927.22
2022-12-07T03:33:11.402Z,101923.53
2022-12-07T03:35:40.866Z,101915.59
2022-12-07T03:38:24.474Z,101921.78
2022-12-07T03:41:06.041Z,101885.91
2022-12-07T03:43:33.406Z,101918.19
2022-12-07T03:46:37.247Z,101928.59
2022-12-07T03:49:17.317Z,101924.53
2022-12-07T03:51:47.322Z,101940.84
2022-12-07T03:54:23.371Z,101945.16
2022-12-07T03:56:51.775Z,101920.72
2022-12-07T03:59:19.691Z,101896.72
2022-12-07T04:01:54.690Z,101896.81
2022-12-07T04:04:23.008Z,101878.56
2022-12-07T04:06:50.034Z,101874.25
2022-12-07T04:09:17.633Z,101862.09
2022-12-07T04:11:44.585Z,101871.69
2022-12-07T04:14:20.130Z,101847.34
2022-12-07T04:16:51.317Z,101879.44
2022-12-07T04:19:20.216Z,101873.44
2022-12-07T04:21:47.529Z,101877.69
2022-12-07T04:24:15.686Z,101825.44
2022-12-07T04:26:43.065Z,101876.66
2022-12-07T04:29:10.946Z,101882.72
2022-12-07T04:31:38.276Z,101869.81
2022-12-07T04:34:06.291Z,101859.44
2022-12-07T04:36:33.800Z,101850.63
2022-12-07T04:39:00.803Z,101843.69
2022-12-07T04:41:30.415Z,101846.19
2022-12-07T04:44:01.862Z,101848.09
2022-12-07T04:46:30.952Z,101861.88
2022-12-07T04:48:58.138Z,101853.25
2022-12-07T04:51:27.519Z,101839.19
2022-12-07T04:53:55.416Z,101841.94
2022-12-07T04:56:23.259Z,101835.09
2022-12-07T04:58:50.688Z,101805.41
2022-12-07T05:01:18.303Z,101837.69
2022-12-07T05:03:45.056Z,101830.88
2022-12-07T05:06:13.776Z,101845.66
2022-12-07T05:08:41.208Z,101836.03
2022-12-07T05:11:09.306Z,101833.44
2022-12-07T05:13:37.247Z,101837.50
2022-12-07T05:16:04.512Z,101833.44
2022-12-07T05:18:31.240Z,101793.50
2022-12-07T05:20:57.953Z,101789.25
2022-12-07T05:23:24.651Z,101788.28
2022-12-07T05:25:51.705Z,101833.50
2022-12-07T05:28:18.448Z,101824.72
2022-12-07T05:30:45.085Z,101793.38
2022-12-07T05:33:11.735Z,101803.13
2022-12-07T05:35:38.999Z,101823.06
2022-12-07T05:38:05.718Z,101767.66
2022-12-07T05:40:32.552Z,101758.31
2022-12-07T05:43:04.167Z,101806.72
2022-12-07T05:45:31.200Z,101790.25
2022-12-07T05:47:58.158Z,101797.16
2022-12-07T05:50:24.955Z,101812.69
2022-12-07T05:52:51.680Z,101807.56
2022-12-07T05:55:18.473Z,101805.84
2022-12-07T05:58:05.158Z,101795.41
2022-12-07T06:00:32.464Z,101814.56
2022-12-07T06:02:59.459Z,101787.72
2022-12-07T06:05:26.465Z,101794.69
2022-12-07T06:07:53.151Z,101758.25
2022-12-07T06:10:19.819Z,101743.59
2022-12-07T06:12:47.412Z,101734.88
2022-12-07T06:15:14.508Z,101755.72
2022-12-07T06:17:41.189Z,101773.09
2022-12-07T06:20:08.306Z,101778.25
2022-12-07T06:22:35.147Z,101778.25
2022-12-07T06:25:08.087Z,101767.81
2022-12-07T06:27:36.579Z,101762.63
2022-12-07T06:30:07.570Z,101760.88
2022-12-07T06:32:35.546Z,101767.03
2022-12-07T06:35:02.354Z,101781.72
2022-12-07T06:37:29.329Z,101754.84
2022-12-07T06:39:56.187Z,101764.41
2022-12-07T06:42:22.924Z,101762.63
2022-12-07T06:44:50.205Z,101769.63
2022-12-07T06:47:40.584Z,101745.19
2022-12-07T06:50:04.594Z,101766.97
2022-12-07T06:52:31.744Z,101785.88
2022-12-07T06:54:59.890Z,101772.03
2022-12-07T06:57:26.967Z,101755.66
2022-12-07T06:59:53.899Z,101755.75
2022-12-07T07:02:20.644Z,101742.72
2022-12-07T07:04:47.431Z,101724.59
2022-12-07T07:07:14.217Z,101735.03
2022-12-07T07:09:40.960Z,101728.09
2022-12-07T07:12:07.640Z,101748.00
2022-12-07T07:14:34.494Z,101762.59
2022-12-07T07:17:01.204Z,101773.91
2022-12-07T07:19:27.971Z,101785.97
2022-12-07T07:21:54.736Z,101766.91
2022-12-07T07:24:21.421Z,101766.03
2022-12-07T07:26:48.169Z,101750.38
2022-12-07T07:29:15.080Z,101741.69
2022-12-07T07:31:41.798Z,101751.19
2022-12-07T07:34:08.779Z,101735.66
2022-12-07T08:06:05.305Z,101736.56
2022-12-07T08:24:42.643Z,101739.31
2022-12-07T08:37:56.068Z,101646.44
2022-12-07T08:51:15.405Z,101684.69
2022-12-07T08:53:56.360Z,101663.00
2022-12-07T08:56:32.586Z,101661.16
2022-12-07T08:59:00.211Z,101660.34
2022-12-07T09:09:31.592Z,101650.00
2022-12-07T09:14:40.055Z,101650.91
2022-12-07T09:17:09.499Z,101629.13
2022-12-07T09:19:40.274Z,101605.81
2022-12-07T09:22:11.761Z,101601.44
2022-12-07T09:24:39.359Z,101601.53
2022-12-07T09:27:06.659Z,101676.03
2022-12-07T09:29:35.079Z,101661.19
2022-12-07T09:34:43.804Z,101682.00
2022-12-07T09:37:11.243Z,101628.25
2022-12-07T09:39:47.965Z,101623.88
2022-12-07T09:42:34.370Z,101656.03
2022-12-07T09:47:44.985Z,101669.13
2022-12-07T09:50:18.506Z,101640.53
2022-12-07T09:52:47.054Z,101664.81
2022-12-07T09:55:21.365Z,101631.97
2022-12-07T09:57:52.772Z,101660.59
2022-12-07T10:00:25.408Z,101621.66
2022-12-07T10:03:01.324Z,101663.28
2022-12-07T10:05:40.678Z,101611.41
2022-12-07T10:08:13.488Z,101674.59
2022-12-07T10:10:41.975Z,101650.47
2022-12-07T10:13:14.477Z,101653.06
2022-12-07T10:15:46.890Z,101646.13
2022-12-07T10:18:20.291Z,101668.56
2022-12-07T10:20:48.743Z,101640.00
2022-12-07T10:23:20.419Z,101641.75
2022-12-07T10:25:49.495Z,101626.16
2022-12-07T10:31:10.538Z,101644.38
2022-12-07T10:33:48.836Z,101627.94
2022-12-07T10:36:20.060Z,101640.00
2022-12-07T10:44:28.010Z,101615.81
2022-12-07T10:47:19.437Z,101623.63
2022-12-07T10:55:55.547Z,101585.59
2022-12-07T10:58:39.490Z,101557.06
2022-12-07T11:05:00.916Z,101592.53
2022-12-07T11:07:39.949Z,101594.25
2022-12-07T11:10:19.707Z,101588.16
2022-12-07T11:13:17.831Z,101589.94
2022-12-07T11:16:13.007Z,101538.06
2022-12-07T11:18:56.575Z,101513.81
2022-12-07T11:22:00.239Z,101504.34
2022-12-07T11:25:03.907Z,101506.06
2022-12-07T11:27:46.033Z,101557.97
2022-12-07T11:30:22.546Z,101547.59
2022-12-07T11:32:52.777Z,101551.94
2022-12-07T11:35:46.938Z,101534.63
2022-12-07T11:38:21.033Z,101508.69
2022-12-07T11:40:57.279Z,101476.72
2022-12-07T11:43:31.858Z,101542.41
2022-12-07T11:46:09.809Z,101516.47
2022-12-07T11:48:47.112Z,101468.06
2022-12-07T11:51:14.766Z,101449.06
2022-12-07T11:53:56.992Z,101499.19
2022-12-07T11:56:29.118Z,101499.19
2022-12-07T11:59:02.306Z,101473.28
2022-12-07T12:01:32.526Z,101502.56
2022-12-07T12:04:11.841Z,101501.69
2022-12-07T12:06:46.360Z,101447.31
2022-12-07T12:15:26.933Z,101500.88
2022-12-07T12:18:12.629Z,101491.41
2022-12-07T12:20:57.675Z,101430.91
2022-12-07T12:23:30.581Z,101498.25
2022-12-07T12:26:00.931Z,101437.78
2022-12-07T12:28:33.768Z,101489.56
2022-12-07T12:31:18.697Z,101482.66
2022-12-07T12:33:49.160Z,101488.75
2022-12-07T12:36:16.590Z,101487.00
2022-12-07T12:38:50.306Z,101492.22
2022-12-07T12:41:49.105Z,101487.91
2022-12-07T12:44:15.797Z,101481.84
2022-12-07T12:47:30.519Z,101474.88
2022-12-07T12:50:22.550Z,101475.81
2022-12-07T12:53:03.826Z,101407.53
2022-12-07T12:55:42.653Z,101466.28
2022-12-07T12:58:18.737Z,101466.25
2022-12-07T13:00:47.409Z,101452.41
2022-12-07T13:03:32.886Z,101439.50
2022-12-07T13:06:21.221Z,101435.19
2022-12-07T13:08:48.322Z,101434.16
2022-12-07T13:11:36.571Z,101437.66
2022-12-07T13:14:41.323Z,101449.88
2022-12-07T13:17:12.806Z,101444.59
2022-12-07T13:19:42.557Z,101435.88
2022-12-07T13:22:32.492Z,101449.03
2022-12-07T13:25:08.516Z,101434.28
2022-12-07T13:27:39.947Z,101439.50
2022-12-07T13:30:19.293Z,101443.00
2022-12-07T13:32:57.245Z,101449.06
2022-12-07T13:35:30.447Z,101447.31
2022-12-07T13:37:57.479Z,101439.56
2022-12-07T13:40:25.415Z,101411.06
2022-12-07T13:43:00.395Z,101419.69
2022-12-07T13:45:51.866Z,101400.69
2022-12-07T13:48:31.647Z,101412.78
2022-12-07T13:51:00.333Z,101402.41
2022-12-07T13:53:31.389Z,101362.66
2022-12-07T13:55:59.628Z,101407.59
2022-12-07T13:58:28.584Z,101401.50
2022-12-07T14:00:55.495Z,101376.44
2022-12-07T14:03:30.684Z,101383.41
2022-12-07T14:06:21.824Z,101386.88
2022-12-07T14:08:48.691Z,101382.56
2022-12-07T14:11:21.652Z,101376.47
2022-12-07T14:13:57.525Z,101384.28
2022-12-07T14:16:33.792Z,101384.25
2022-12-07T14:19:11.948Z,101366.13
2022-12-07T14:21:39.063Z,101365.22
2022-12-07T14:24:24.817Z,101387.69
2022-12-07T14:26:53.247Z,101341.06
2022-12-07T14:29:26.627Z,101374.75
2022-12-07T14:31:57.223Z,101362.63
2022-12-07T14:34:25.514Z,101348.00
2022-12-07T14:36:57.937Z,101342.81
2022-12-07T14:39:34.169Z,101343.69
2022-12-07T14:42:01.665Z,101286.69
2022-12-07T14:44:35.828Z,101303.09
2022-12-07T14:50:01.700Z,101291.88
2022-12-07T14:55:25.801Z,101316.03
2022-12-07T14:57:57.445Z,101345.41
2022-12-07T15:00:26.324Z,101327.25
2022-12-07T15:02:54.356Z,101320.38
2022-12-07T15:05:26.572Z,101287.56
2022-12-07T15:07:53.978Z,101316.00
2022-12-07T15:10:25.307Z,101289.28
2022-12-07T15:12:52.639Z,101247.00
2022-12-07T15:15:32.253Z,101284.97
2022-12-07T15:17:59.564Z,101269.41
2022-12-07T15:20:30.736Z,101284.97
2022-12-07T15:22:57.535Z,101301.38
2022-12-07T15:25:24.657Z,101240.94
2022-12-07T15:27:51.541Z,101297.91
2022-12-07T15:30:20.883Z,101248.72
2022-12-07T15:32:53.209Z,101297.06
2022-12-07T15:35:21.615Z,101259.06
2022-12-07T15:37:48.489Z,101248.72
2022-12-07T15:40:15.933Z,101267.72
2022-12-07T15:42:43.142Z,101232.31
2022-12-07T15:45:11.570Z,101228.88
2022-12-07T15:48:26.188Z,101278.06
2022-12-07T15:50:38.460Z,101287.56
2022-12-07T15:53:07.809Z,101244.41
2022-12-07T15:55:43.284Z,101211.63
2022-12-07T16:08:53.150Z,101229.75
2022-12-07T16:11:20.265Z,101250.47
2022-12-07T16:13:56.218Z,101230.59
2022-12-07T16:16:25.424Z,101209.03
2022-12-07T16:18:52.789Z,101237.50
2022-12-07T16:24:00.649Z,101206.44
2022-12-07T16:26:27.448Z,101222.84
2022-12-07T16:28:56.649Z,101202.13
2022-12-07T16:31:25.996Z,101240.09
2022-12-07T16:33:58.151Z,101196.09
2022-12-07T16:37:01.903Z,101178.84
2022-12-07T16:39:14.865Z,101196.97
2022-12-07T16:41:41.662Z,101174.50
2022-12-07T16:44:11.406Z,101152.09
2022-12-07T16:46:38.150Z,101140.00
2022-12-07T16:49:05.613Z,101171.06
2022-12-07T16:51:32.717Z,101200.34
2022-12-07T16:53:59.954Z,101182.25
2022-12-07T16:56:28.005Z,101125.34
2022-12-07T16:58:55.907Z,101181.41
2022-12-07T17:01:23.902Z,101189.19
2022-12-07T17:03:51.614Z,101197.75
2022-12-07T17:06:29.060Z,101204.69
2022-12-07T17:08:57.033Z,101212.47
2022-12-07T17:11:27.626Z,101162.47
2022-12-07T17:14:17.055Z,101193.50
2022-12-07T17:16:48.596Z,101213.31
2022-12-07T17:19:21.544Z,101164.16
2022-12-07T17:21:49.151Z,101180.53
2022-12-07T17:24:18.433Z,101173.66
2022-12-07T17:26:51.893Z,101188.31
2022-12-07T17:29:19.898Z,101137.41
2022-12-07T17:31:51.701Z,101138.31
2022-12-07T17:34:19.010Z,101165.91
2022-12-07T17:36:46.354Z,101134.84
2022-12-07T17:39:16.696Z,101147.78
2022-12-07T17:42:02.546Z,101154.69
2022-12-07T17:44:29.629Z,101156.44
2022-12-07T17:46:59.882Z,101140.88
2022-12-07T17:49:28.012Z,101090.03
2022-12-07T17:52:13.783Z,101070.19
2022-12-07T17:54:40.530Z,101110.72
2022-12-07T17:57:07.699Z,101110.72
2022-12-07T17:59:34.712Z,101177.13
2022-12-07T18:02:01.810Z,101186.63
2022-12-07T18:04:28.671Z,101100.38
2022-12-07T18:06:55.774Z,101152.03
2022-12-07T18:09:32.396Z,101171.91
2022-12-07T18:12:02.839Z,101124.50
2022-12-07T18:19:50.835Z,101164.16
2022-12-07T18:22:20.406Z,101159.00
2022-12-07T18:24:51.437Z,101172.81
2022-12-07T18:27:18.916Z,101157.28
2022-12-07T18:32:28.011Z,101107.25
2022-12-07T18:34:59.135Z,101141.75
2022-12-07T18:40:09.693Z,101109.84
2022-12-07T18:45:18.689Z,101121.91
2022-12-07T18:47:46.641Z,101080.53
2022-12-07T18:58:19.728Z,101138.31
2022-12-07T19:00:46.551Z,101160.72
2022-12-07T19:03:13.487Z,101104.69
2022-12-07T19:05:40.187Z,101098.66
2022-12-07T19:08:07.532Z,101102.06
2022-12-07T19:10:34.563Z,101132.22
2022-12-07T19:13:02.714Z,101156.41
2022-12-07T19:15:29.395Z,101161.56
2022-12-07T19:17:56.078Z,101105.50
2022-12-07T19:20:22.903Z,101153.78
2022-12-07T19:22:49.825Z,101119.28
2022-12-07T19:25:20.820Z,101161.53
2022-12-07T19:27:47.824Z,101149.44
2022-12-07T19:30:14.869Z,101117.56
2022-12-07T19:32:42.155Z,101133.09
2022-12-07T19:35:09.576Z,101143.47
2022-12-07T19:37:36.286Z,101111.56
2022-12-07T19:40:02.998Z,101080.50
2022-12-07T19:42:35.297Z,101112.44
2022-12-07T19:45:03.590Z,101151.25
2022-12-07T19:47:30.431Z,101112.44
2022-12-07T19:49:57.179Z,101078.81
2022-12-07T19:52:23.821Z,101112.44
2022-12-07T19:54:50.509Z,101090.00
2022-12-07T19:57:18.298Z,101073.63
2022-12-07T19:59:46.422Z,101084.84
2022-12-07T20:02:15.985Z,101096.06
2022-12-07T20:04:43.077Z,101074.50
2022-12-07T20:07:10.568Z,101060.72
2022-12-07T20:09:37.281Z,101102.97
2022-12-07T20:12:23.040Z,101104.69
2022-12-07T20:14:49.833Z,101098.63
2022-12-07T20:17:16.578Z,101083.13
2022-12-07T20:19:43.351Z,101090.00
2022-12-07T20:22:10.105Z,101116.75
2022-12-07T20:24:37.453Z,101102.09
2022-12-07T20:27:05.322Z,101100.34
2022-12-07T20:29:32.798Z,101111.56
2022-12-07T20:31:59.712Z,101103.81
2022-12-07T20:34:26.776Z,101087.47
2022-12-07T20:36:54.941Z,101099.53
2022-12-07T20:39:23.713Z,101100.34
2022-12-07T20:42:09.644Z,101096.94
2022-12-07T20:44:36.356Z,101090.88
2022-12-07T20:47:04.631Z,101070.19
2022-12-07T20:49:31.486Z,101062.44
2022-12-07T20:51:58.199Z,101035.72
2022-12-07T20:54:24.894Z,101044.34
2022-12-07T20:56:51.679Z,101015.88
2022-12-07T20:59:18.457Z,101052.97
2022-12-07T21:01:46.356Z,101060.72
2022-12-07T21:04:14.560Z,101033.13
2022-12-07T21:06:41.760Z,101065.03
2022-12-07T21:09:10.666Z,101079.66
2022-12-07T21:11:37.977Z,101027.09
2022-12-07T21:14:04.726Z,101044.34
2022-12-07T21:16:31.957Z,101065.88
2022-12-07T21:19:04.010Z,101049.50
2022-12-07T21:21:32.210Z,101030.53
2022-12-07T21:24:02.468Z,101050.38
2022-12-07T21:26:31.426Z,101057.25
2022-12-07T21:28:58.329Z,101058.97
2022-12-07T21:31:27.078Z,101069.31
2022-12-07T21:33:53.993Z,101024.47
2022-12-07T21:36:25.352Z,101055.53
2022-12-07T21:38:52.648Z,101066.72
2022-12-07T21:41:25.026Z,101071.03
2022-12-07T21:43:52.582Z,101046.06
2022-12-07T21:46:20.780Z,101070.19
2022-12-07T21:48:52.917Z,101055.53
2022-12-07T21:51:21.409Z,101065.84
2022-12-07T21:53:49.477Z,101044.31
2022-12-07T21:56:19.355Z,101055.53
2022-12-07T21:58:46.838Z,101058.13
2022-12-07T22:01:37.787Z,101016.78
2022-12-07T22:04:06.600Z,101046.91
2022-12-07T22:06:34.769Z,101028.81
2022-12-07T22:09:01.530Z,101021.91
2022-12-07T22:11:28.184Z,101005.56
2022-12-07T22:14:13.670Z,101036.59
2022-12-07T22:16:40.516Z,101034.84
2022-12-07T22:19:08.933Z,100999.53
2022-12-07T22:21:36.005Z,101013.31
2022-12-07T22:24:04.288Z,101032.28
2022-12-07T22:26:31.573Z,101031.41
2022-12-07T22:28:58.692Z,101033.13
2022-12-07T22:31:25.788Z,101042.63
2022-12-07T22:33:52.900Z,101046.94
2022-12-07T22:36:19.747Z,101045.22
2022-12-07T22:38:47.074Z,101033.13
2022-12-07T22:41:19.594Z,101041.75
2022-12-07T22:43:46.562Z,101058.97
2022-12-07T22:46:13.290Z,101058.16
2022-12-07T22:48:39.999Z,101052.09
2022-12-07T22:51:06.852Z,101047.81
2022-12-07T22:53:33.798Z,101024.50
2022-12-07T22:56:00.448Z,101032.25
2022-12-07T22:58:30.294Z,101021.06
2022-12-07T23:00:56.985Z,100983.16
2022-12-07T23:03:23.790Z,100979.66
2022-12-07T23:05:50.611Z,100990.88
2022-12-07T23:08:17.400Z,100988.31
2022-12-07T23:10:47.651Z,101018.47
2022-12-07T23:13:35.893Z,101022.75
2022-12-07T23:16:14.490Z,101021.06
2022-12-07T23:18:43.361Z,100999.50
2022-12-07T23:21:10.288Z,101002.97
2022-12-07T23:23:37.097Z,100997.78
2022-12-07T23:26:09.098Z,101026.22
2022-12-07T23:28:36.757Z,101039.16
2022-12-07T23:31:03.430Z,101042.63
2022-12-07T23:33:30.474Z,101013.31
2022-12-07T23:35:57.421Z,100991.78
2022-12-07T23:38:24.339Z,100986.63
2022-12-07T23:40:53.178Z,100928.06
2022-12-07T23:43:19.811Z,100950.44
2022-12-07T23:45:47.189Z,100976.25
2022-12-07T23:48:13.902Z,100939.22
2022-12-07T23:50:40.545Z,100984.03
2022-12-07T23:53:07.161Z,100978.84
2022-12-07T23:55:33.899Z,100983.13
2022-12-07T23:58:00.536Z,100968.50
